Time,TemperatureF,DewpointF,PressureIn,WindDirection,WindDirectionDegrees,WindSpeedMPH,WindSpeedGustMPH,Humidity,HourlyPrecipIn,Conditions,Clouds,dailyrainin,SoftwareType,DateUTC
2014-01-22 00:01:00,52.7,10.0,30.24,SSE,155,0.0,1.0,18,0.00,,,0.00,weatherlink.com 1.10,2014-01-22 08:01:00,
2014-01-22 00:16:00,52.8,10.0,30.23,SSE,155,0.0,0.0,18,0.00,,,0.00,weatherlink.com 1.10,2014-01-22 08:16:00,
2014-01-22 00:31:00,53.3,11.0,30.23,SSE,165,1.0,1.0,18,0.00,,,0.00,weatherlink.com 1.10,2014-01-22 08:31:00,
2014-01-22 00:46:00,53.1,10.0,30.23,South,172,1.0,2.0,18,0.00,,,0.00,weatherlink.com 1.10,2014-01-22 08:46:00,
2014-01-22 01:01:00,53.5,9.0,30.23,SE,145,0.0,3.0,17,0.00,,,0.00,weatherlink.com 1.10,2014-01-22 09:01:00,
2014-01-22 01:16:00,53.3,9.0,30.23,South,170,0.0,1.0,17,0.00,,,0.00,weatherlink.com 1.10,2014-01-22 09:16:00,
2014-01-22 01:31:00,52.9,9.0,30.23,South,179,0.0,1.0,17,0.00,,,0.00,weatherlink.com 1.10,2014-01-22 09:31:00,
2014-01-22 01:46:00,52.8,10.0,30.22,SSE,154,0.0,2.0,18,0.00,,,0.00,weatherlink.com 1.10,2014-01-22 09:46:00,
2014-01-22 02:01:00,52.9,10.0,30.21,South,170,0.0,2.0,18,0.00,,,0.00,weatherlink.com 1.10,2014-01-22 10:01:00,
2014-01-22 02:16:00,52.7,10.0,30.21,SE,144,0.0,2.0,18,0.00,,,0.00,weatherlink.com 1.10,2014-01-22 10:16:00,
2014-01-22 02:31:00,52.2,10.0,30.20,SE,143,0.0,1.0,18,0.00,,,0.00,weatherlink.com 1.10,2014-01-22 10:31:00,
2014-01-22 02:46:00,53.0,10.0,30.20,ESE,110,0.0,1.0,18,0.00,,,0.00,weatherlink.com 1.10,2014-01-22 10:46:00,
2014-01-22 03:01:00,52.7,10.0,30.19,ESE,113,0.0,2.0,18,0.00,,,0.00,weatherlink.com 1.10,2014-01-22 11:01:00,
2014-01-22 03:16:00,51.9,9.0,30.18,SE,145,0.0,1.0,18,0.00,,,0.00,weatherlink.com 1.10,2014-01-22 11:16:00,
2014-01-22 03:31:00,51.5,9.0,30.18,SSE,147,0.0,1.0,18,0.00,,,0.00,weatherlink.com 1.10,2014-01-22 11:31:00,
2014-01-22 03:46:00,51.0,10.0,30.18,SSE,148,0.0,1.0,19,0.00,,,0.00,weatherlink.com 1.10,2014-01-22 11:46:00,
2014-01-22 04:01:00,51.3,9.0,30.17,SE,145,0.0,0.0,18,0.00,,,0.00,weatherlink.com 1.10,2014-01-22 12:01:00,
2014-01-22 04:16:00,50.6,10.0,30.16,SE,146,0.0,0.0,19,0.00,,,0.00,weatherlink.com 1.10,2014-01-22 12:16:00,
2014-01-22 04:31:00,50.3,9.0,30.16,SE,137,0.0,1.0,19,0.00,,,0.00,weatherlink.com 1.10,2014-01-22 12:31:00,
2014-01-22 04:46:00,50.7,8.0,30.16,ESE,117,0.0,1.0,18,0.00,,,0.00,weatherlink.com 1.10,2014-01-22 12:46:00,
2014-01-22 05:01:00,51.4,9.0,30.16,East,93,0.0,1.0,18,0.00,,,0.00,weatherlink.com 1.10,2014-01-22 13:01:00,
2014-01-22 05:16:00,51.8,9.0,30.16,East,98,0.0,1.0,18,0.00,,,0.00,weatherlink.com 1.10,2014-01-22 13:16:00,
2014-01-22 05:31:00,50.5,9.0,30.15,East,98,0.0,0.0,19,0.00,,,0.00,weatherlink.com 1.10,2014-01-22 13:31:00,
2014-01-22 05:46:00,50.8,10.0,30.15,ESE,104,0.0,1.0,19,0.00,,,0.00,weatherlink.com 1.10,2014-01-22 13:46:00,
2014-01-22 06:01:00,51.0,10.0,30.16,ESE,113,0.0,0.0,19,0.00,,,0.00,weatherlink.com 1.10,2014-01-22 14:01:00,
2014-01-22 06:16:00,50.1,9.0,30.16,SE,131,1.0,1.0,19,0.00,,,0.00,weatherlink.com 1.10,2014-01-22 14:16:00,
2014-01-22 06:31:00,49.5,10.0,30.16,SSE,148,1.0,1.0,20,0.00,,,0.00,weatherlink.com 1.10,2014-01-22 14:31:00,
2014-01-22 06:46:00,48.8,9.0,30.16,SSE,150,1.0,1.0,20,0.00,,,0.00,weatherlink.com 1.10,2014-01-22 14:46:00,
2014-01-22 07:01:00,48.7,9.0,30.16,SSE,164,1.0,1.0,20,0.00,,,0.00,weatherlink.com 1.10,2014-01-22 15:01:00,
2014-01-22 07:16:00,49.0,9.0,30.16,SSE,152,0.0,2.0,20,0.00,,,0.00,weatherlink.com 1.10,2014-01-22 15:16:00,
2014-01-22 07:31:00,50.2,10.0,30.16,SE,124,1.0,1.0,20,0.00,,,0.00,weatherlink.com 1.10,2014-01-22 15:31:00,
2014-01-22 07:46:00,51.9,11.0,30.16,ENE,77,1.0,2.0,19,0.00,,,0.00,weatherlink.com 1.10,2014-01-22 15:46:00,
2014-01-22 08:01:00,53.6,11.0,30.16,East,92,0.0,2.0,18,0.00,,,0.00,weatherlink.com 1.10,2014-01-22 16:01:00,
2014-01-22 08:16:00,53.7,12.0,30.16,East,82,0.0,1.0,19,0.00,,,0.00,weatherlink.com 1.10,2014-01-22 16:16:00,
2014-01-22 08:31:00,55.0,11.0,30.16,NE,53,2.0,2.0,17,0.00,,,0.00,weatherlink.com 1.10,2014-01-22 16:31:00,
2014-01-22 08:47:00,55.8,13.0,30.16,NE,56,0.0,3.0,18,0.00,,,0.00,weatherlink.com 1.10,2014-01-22 16:47:00,
2014-01-22 09:02:00,56.5,12.0,30.17,ENE,63,1.0,2.0,17,0.00,,,0.00,weatherlink.com 1.10,2014-01-22 17:02:00,
2014-01-22 09:17:00,57.3,11.0,30.17,East,81,2.0,5.0,16,0.00,,,0.00,weatherlink.com 1.10,2014-01-22 17:17:00,
2014-01-22 09:32:00,58.5,11.0,30.17,ENE,65,5.0,6.0,15,0.00,,,0.00,weatherlink.com 1.10,2014-01-22 17:32:00,
2014-01-22 09:47:00,59.5,10.0,30.17,NE,51,4.0,6.0,14,0.00,,,0.00,weatherlink.com 1.10,2014-01-22 17:47:00,
2014-01-22 10:02:00,59.9,9.0,30.17,ENE,61,4.0,7.0,13,0.00,,,0.00,weatherlink.com 1.10,2014-01-22 18:02:00,
2014-01-22 10:17:00,60.1,9.0,30.16,ENE,77,5.0,7.0,13,0.00,,,0.00,weatherlink.com 1.10,2014-01-22 18:17:00,
2014-01-22 10:32:00,60.5,9.0,30.16,NE,52,3.0,6.0,13,0.00,,,0.00,weatherlink.com 1.10,2014-01-22 18:32:00,
2014-01-22 10:47:00,61.3,8.0,30.15,ENE,75,5.0,7.0,12,0.00,,,0.00,weatherlink.com 1.10,2014-01-22 18:47:00,
2014-01-22 11:02:00,61.4,8.0,30.14,NNE,33,6.0,8.0,12,0.00,,,0.00,weatherlink.com 1.10,2014-01-22 19:02:00,
2014-01-22 11:17:00,62.2,9.0,30.14,NE,37,4.0,6.0,12,0.00,,,0.00,weatherlink.com 1.10,2014-01-22 19:17:00,
2014-01-22 11:32:00,62.1,9.0,30.13,NNW,330,2.0,8.0,12,0.00,,,0.00,weatherlink.com 1.10,2014-01-22 19:32:00,
2014-01-22 11:47:00,62.7,7.0,30.12,NE,54,4.0,7.0,11,0.00,,,0.00,weatherlink.com 1.10,2014-01-22 19:47:00,
2014-01-22 12:02:00,63.7,8.0,30.10,ENE,68,3.0,6.0,11,0.00,,,0.00,weatherlink.com 1.10,2014-01-22 20:02:00,
2014-01-22 12:17:00,64.9,7.0,30.08,East,85,3.0,7.0,10,0.00,,,0.00,weatherlink.com 1.10,2014-01-22 20:17:00,
2014-01-22 12:32:00,63.3,8.0,30.08,ESE,107,2.0,5.0,11,0.00,,,0.00,weatherlink.com 1.10,2014-01-22 20:32:00,
2014-01-22 12:47:00,63.3,8.0,30.07,ENE,62,4.0,6.0,11,0.00,,,0.00,weatherlink.com 1.10,2014-01-22 20:47:00,
2014-01-22 13:02:00,64.5,9.0,30.06,NE,41,2.0,5.0,11,0.00,,,0.00,weatherlink.com 1.10,2014-01-22 21:02:00,
2014-01-22 13:17:00,64.8,9.0,30.06,ENE,60,3.0,6.0,11,0.00,,,0.00,weatherlink.com 1.10,2014-01-22 21:17:00,
2014-01-22 13:32:00,64.0,8.0,30.05,NNE,32,2.0,6.0,11,0.00,,,0.00,weatherlink.com 1.10,2014-01-22 21:32:00,
2014-01-22 13:47:00,63.0,7.0,30.05,NNE,25,2.0,5.0,11,0.00,,,0.00,weatherlink.com 1.10,2014-01-22 21:47:00,
2014-01-22 14:02:00,63.4,6.0,30.04,NE,51,1.0,4.0,10,0.00,,,0.00,weatherlink.com 1.10,2014-01-22 22:02:00,
2014-01-22 14:17:00,62.8,7.0,30.04,NNE,27,0.0,0.0,11,0.00,,,0.00,weatherlink.com 1.10,2014-01-22 22:17:00,
2014-01-22 14:32:00,63.4,8.0,30.03,ESE,109,1.0,2.0,11,0.00,,,0.00,weatherlink.com 1.10,2014-01-22 22:32:00,
2014-01-22 14:47:00,64.6,7.0,30.03,SSE,159,1.0,3.0,10,0.00,,,0.00,weatherlink.com 1.10,2014-01-22 22:47:00,
2014-01-22 15:03:00,66.5,6.0,30.03,WNW,283,0.0,2.0,9,0.00,,,0.00,weatherlink.com 1.10,2014-01-22 23:03:00,
2014-01-22 15:18:00,66.0,5.0,30.02,ESE,115,0.0,0.0,9,0.00,,,0.00,weatherlink.com 1.10,2014-01-22 23:18:00,
2014-01-22 15:33:00,66.9,3.0,30.02,SSE,150,0.0,2.0,8,0.00,,,0.00,weatherlink.com 1.10,2014-01-22 23:33:00,
2014-01-22 15:48:00,64.7,2.0,30.02,SSE,153,0.0,0.0,8,0.00,,,0.00,weatherlink.com 1.10,2014-01-22 23:48:00,
2014-01-22 16:03:00,65.2,5.0,30.01,SSE,151,0.0,2.0,9,0.00,,,0.00,weatherlink.com 1.10,2014-01-23 00:03:00,
2014-01-22 16:18:00,67.2,4.0,30.01,South,169,0.0,1.0,8,0.00,,,0.00,weatherlink.com 1.10,2014-01-23 00:18:00,
2014-01-22 16:33:00,63.0,0.0,30.01,SSE,167,1.0,1.0,8,0.00,,,0.00,weatherlink.com 1.10,2014-01-23 00:33:00,
2014-01-22 16:48:00,60.6,1.0,30.01,South,176,1.0,1.0,9,0.00,,,0.00,weatherlink.com 1.10,2014-01-23 00:48:00,
2014-01-22 18:18:00,58.6,25.0,30.00,WSW,258,7.0,10.0,27,0.00,,,0.00,weatherlink.com 1.10,2014-01-23 02:18:00,
2014-01-22 18:33:00,59.0,24.0,30.00,West,268,7.0,10.0,26,0.00,,,0.00,weatherlink.com 1.10,2014-01-23 02:33:00,
2014-01-22 18:48:00,59.1,23.0,30.00,WSW,252,7.0,8.0,25,0.00,,,0.00,weatherlink.com 1.10,2014-01-23 02:48:00,
2014-01-22 19:03:00,58.7,22.0,30.00,West,275,3.0,7.0,24,0.00,,,0.00,weatherlink.com 1.10,2014-01-23 03:03:00,
2014-01-22 19:18:00,58.1,23.0,30.00,WSW,254,1.0,7.0,26,0.00,,,0.00,weatherlink.com 1.10,2014-01-23 03:18:00,
2014-01-22 19:33:00,56.2,22.0,29.99,WSW,242,1.0,2.0,26,0.00,,,0.00,weatherlink.com 1.10,2014-01-23 03:33:00,
2014-01-22 19:48:00,57.1,19.0,30.00,West,271,4.0,8.0,23,0.00,,,0.00,weatherlink.com 1.10,2014-01-23 03:48:00,
2014-01-22 20:03:00,57.6,15.0,30.00,WNW,288,3.0,4.0,19,0.00,,,0.00,weatherlink.com 1.10,2014-01-23 04:03:00,
2014-01-22 20:18:00,56.6,21.0,30.00,West,274,7.0,9.0,25,0.00,,,0.00,weatherlink.com 1.10,2014-01-23 04:18:00,
2014-01-22 20:33:00,56.4,19.0,30.00,West,261,7.0,9.0,23,0.00,,,0.00,weatherlink.com 1.10,2014-01-23 04:33:00,
2014-01-22 20:49:00,58.8,11.0,30.00,West,278,6.0,10.0,15,0.00,,,0.00,weatherlink.com 1.10,2014-01-23 04:49:00,
2014-01-22 21:04:00,58.6,12.0,30.00,West,276,5.0,9.0,16,0.00,,,0.00,weatherlink.com 1.10,2014-01-23 05:04:00,
2014-01-22 21:19:00,59.5,12.0,30.00,West,276,4.0,8.0,15,0.00,,,0.00,weatherlink.com 1.10,2014-01-23 05:19:00,
2014-01-22 21:34:00,59.0,10.0,30.00,WNW,285,2.0,7.0,14,0.00,,,0.00,weatherlink.com 1.10,2014-01-23 05:34:00,
2014-01-22 21:49:00,58.6,8.0,30.00,West,274,5.0,7.0,13,0.00,,,0.00,weatherlink.com 1.10,2014-01-23 05:49:00,
2014-01-22 22:04:00,59.4,8.0,30.00,West,276,5.0,8.0,13,0.00,,,0.00,weatherlink.com 1.10,2014-01-23 06:04:00,
2014-01-22 22:19:00,59.6,8.0,30.00,WSW,258,5.0,5.0,13,0.00,,,0.00,weatherlink.com 1.10,2014-01-23 06:19:00,
2014-01-22 22:34:00,59.5,10.0,30.00,WNW,295,0.0,4.0,14,0.00,,,0.00,weatherlink.com 1.10,2014-01-23 06:34:00,
2014-01-22 22:49:00,55.7,10.0,30.00,SE,141,0.0,2.0,16,0.00,,,0.00,weatherlink.com 1.10,2014-01-23 06:49:00,
2014-01-22 23:04:00,56.2,10.0,30.00,ESE,113,1.0,1.0,16,0.00,,,0.00,weatherlink.com 1.10,2014-01-23 07:04:00,
2014-01-22 23:19:00,56.1,10.0,30.00,ESE,113,0.0,1.0,16,0.00,,,0.00,weatherlink.com 1.10,2014-01-23 07:19:00,
2014-01-22 23:34:00,56.0,9.0,30.00,ESE,113,0.0,0.0,15,0.00,,,0.00,weatherlink.com 1.10,2014-01-23 07:34:00,
2014-01-22 23:49:00,55.7,8.0,29.99,SE,133,0.0,0.0,15,0.00,,,0.00,weatherlink.com 1.10,2014-01-23 07:49:00,